createdAt,value
2023-01-20T00:02:52.101Z,-3.46
2023-01-20T00:05:54.746Z,-3.28
2023-01-20T00:09:00.701Z,-3.17
2023-01-20T00:12:03.353Z,-3.00
2023-01-20T00:15:07.487Z,-3.03
2023-01-20T00:18:09.976Z,-2.96
2023-01-20T00:21:13.883Z,-2.87
2023-01-20T00:24:16.477Z,-2.85
2023-01-20T00:27:20.494Z,-2.90
2023-01-20T00:30:23.444Z,-2.94
2023-01-20T00:33:26.108Z,-2.91
2023-01-20T00:36:31.523Z,-2.89
2023-01-20T00:39:34.138Z,-2.91
2023-01-20T00:42:36.703Z,-2.90
2023-01-20T00:45:39.415Z,-3.02
2023-01-20T00:48:42.753Z,-3.07
2023-01-20T00:51:45.375Z,-3.02
2023-01-20T00:54:47.896Z,-3.06
2023-01-20T00:57:50.500Z,-2.93
2023-01-20T01:00:53.735Z,-2.97
2023-01-20T01:03:56.326Z,-3.00
2023-01-20T01:06:58.949Z,-2.97
2023-01-20T01:10:02.491Z,-3.13
2023-01-20T01:13:06.043Z,-3.07
2023-01-20T01:16:15.987Z,-3.04
2023-01-20T01:19:19.346Z,-3.20
2023-01-20T01:22:22.318Z,-3.46
2023-01-20T01:25:28.046Z,-3.33
2023-01-20T01:28:30.653Z,-3.27
2023-01-20T01:31:33.938Z,-3.15
2023-01-20T01:34:37.395Z,-3.14
2023-01-20T01:37:40.114Z,-3.10
2023-01-20T01:40:49.133Z,-3.07
2023-01-20T01:44:07.087Z,-3.03
2023-01-20T01:47:09.716Z,-2.88
2023-01-20T01:50:16.275Z,-3.16
2023-01-20T01:53:19.467Z,-3.01
2023-01-20T01:56:22.982Z,-3.01
2023-01-20T01:59:25.707Z,-2.98
2023-01-20T02:02:28.814Z,-2.84
2023-01-20T02:05:32.595Z,-2.81
2023-01-20T02:08:36.265Z,-2.80
2023-01-20T02:11:49.819Z,-2.74
2023-01-20T02:14:59.813Z,-2.66
2023-01-20T02:18:35.136Z,-2.69
2023-01-20T02:22:16.854Z,-2.85
2023-01-20T02:25:28.329Z,-2.96
2023-01-20T02:29:04.652Z,-2.97
2023-01-20T02:32:22.319Z,-2.97
2023-01-20T02:35:30.578Z,-2.90
2023-01-20T02:38:39.987Z,-2.82
2023-01-20T02:42:00.801Z,-2.73
2023-01-20T02:45:16.623Z,-2.77
2023-01-20T02:48:27.187Z,-2.76
2023-01-20T02:51:36.186Z,-2.86
2023-01-20T02:54:41.904Z,-2.80
2023-01-20T02:57:52.347Z,-2.80
2023-01-20T03:00:59.419Z,-2.79
2023-01-20T03:04:04.365Z,-2.72
2023-01-20T03:07:08.512Z,-2.77
2023-01-20T03:10:15.549Z,-2.81
2023-01-20T03:13:33.314Z,-2.75
2023-01-20T03:16:37.697Z,-2.71
2023-01-20T03:19:40.810Z,-2.65
2023-01-20T03:22:44.243Z,-2.64
2023-01-20T03:25:48.608Z,-2.67
2023-01-20T03:28:52.142Z,-2.67
2023-01-20T03:32:00.937Z,-2.58
2023-01-20T03:35:04.766Z,-2.47
2023-01-20T03:38:08.343Z,-2.44
2023-01-20T03:41:15.305Z,-2.38
2023-01-20T03:44:53.570Z,-2.29
2023-01-20T03:48:01.772Z,-2.28
2023-01-20T03:51:35.163Z,-2.32
2023-01-20T03:54:47.754Z,-2.28
2023-01-20T03:58:05.351Z,-2.26
2023-01-20T04:01:18.330Z,-2.21
2023-01-20T04:04:25.570Z,-2.31
2023-01-20T04:07:32.022Z,-2.25
2023-01-20T04:10:37.446Z,-2.19
2023-01-20T04:13:40.656Z,-2.13
2023-01-20T04:16:49.544Z,-2.18
2023-01-20T04:19:53.086Z,-2.15
2023-01-20T04:23:01.592Z,-2.13
2023-01-20T04:26:08.043Z,-2.18
2023-01-20T04:29:13.205Z,-2.26
2023-01-20T04:32:16.869Z,-2.33
2023-01-20T04:35:20.677Z,-2.31
2023-01-20T04:38:23.930Z,-2.44
2023-01-20T04:41:27.213Z,-2.40
2023-01-20T04:44:30.447Z,-2.31
2023-01-20T04:47:34.321Z,-2.44
2023-01-20T04:50:41.263Z,-2.36
2023-01-20T04:53:44.129Z,-2.22
2023-01-20T04:56:48.934Z,-2.15
2023-01-20T04:59:51.541Z,-2.07
2023-01-20T05:02:57.467Z,-2.05
2023-01-20T05:06:00.997Z,-2.00
2023-01-20T05:09:03.988Z,-2.01
2023-01-20T05:12:06.862Z,-2.02
2023-01-20T05:15:09.962Z,-2.09
2023-01-20T05:18:12.586Z,-2.02
2023-01-20T05:21:15.237Z,-1.93
2023-01-20T05:24:17.871Z,-1.90
2023-01-20T05:27:20.777Z,-1.88
2023-01-20T05:30:23.495Z,-1.79
2023-01-20T05:33:26.232Z,-1.74
2023-01-20T05:36:28.822Z,-1.66
2023-01-20T05:39:31.655Z,-1.60
2023-01-20T05:42:34.605Z,-1.64
2023-01-20T05:45:37.406Z,-1.62
2023-01-20T05:48:40.095Z,-1.60
2023-01-20T05:51:43.062Z,-1.67
2023-01-20T05:54:46.496Z,-1.65
2023-01-20T05:57:49.149Z,-1.65
2023-01-20T06:00:51.724Z,-1.60
2023-01-20T06:03:54.425Z,-1.56
2023-01-20T06:06:59.577Z,-1.52
2023-01-20T06:10:02.783Z,-1.61
2023-01-20T06:13:05.432Z,-1.61
2023-01-20T06:16:08.388Z,-1.58
2023-01-20T06:19:11.359Z,-1.65
2023-01-20T06:22:19.990Z,-1.70
2023-01-20T06:25:22.850Z,-1.70
2023-01-20T06:28:26.645Z,-1.69
2023-01-20T06:31:29.363Z,-1.81
2023-01-20T06:34:32.745Z,-1.80
2023-01-20T06:37:35.718Z,-1.81
2023-01-20T06:40:38.605Z,-1.79
2023-01-20T06:43:42.368Z,-1.80
2023-01-20T06:46:48.410Z,-1.83
2023-01-20T06:49:51.160Z,-1.82
2023-01-20T06:52:54.325Z,-1.85
2023-01-20T06:55:58.315Z,-1.86
2023-01-20T06:59:01.041Z,-1.89
2023-01-20T07:02:05.226Z,-1.84
2023-01-20T07:05:10.131Z,-1.88
2023-01-20T07:08:12.946Z,-1.86
2023-01-20T07:11:15.762Z,-1.75
2023-01-20T07:14:19.169Z,-1.68
2023-01-20T07:17:21.729Z,-1.57
2023-01-20T07:20:24.677Z,-1.55
2023-01-20T07:23:28.826Z,-1.50
2023-01-20T07:26:33.168Z,-1.49
2023-01-20T07:29:35.773Z,-1.34
2023-01-20T07:32:39.321Z,-1.36
2023-01-20T07:35:42.084Z,-1.24
2023-01-20T07:38:49.036Z,-1.10
2023-01-20T07:41:51.801Z,-1.09
2023-01-20T07:44:56.457Z,-1.08
2023-01-20T07:47:59.641Z,-0.84
2023-01-20T07:51:06.948Z,-0.79
2023-01-20T07:54:10.742Z,-0.57
2023-01-20T07:57:13.792Z,-0.81
2023-01-20T08:00:19.596Z,-0.80
2023-01-20T08:03:22.974Z,-0.66
2023-01-20T08:06:26.404Z,-0.51
2023-01-20T08:09:30.004Z,-0.24
2023-01-20T08:12:32.626Z,-0.42
2023-01-20T08:15:36.343Z,-0.51
2023-01-20T08:18:40.202Z,-0.31
2023-01-20T08:21:43.242Z,-0.52
2023-01-20T08:24:46.045Z,-0.35
2023-01-20T08:27:50.560Z,-0.29
2023-01-20T08:30:53.588Z,-0.32
2023-01-20T08:33:56.752Z,0.03
2023-01-20T08:36:59.550Z,0.15
2023-01-20T08:40:02.156Z,0.04
2023-01-20T08:43:05.522Z,0.47
2023-01-20T08:46:10.800Z,0.43
2023-01-20T08:49:16.326Z,0.77
2023-01-20T08:52:19.139Z,0.98
2023-01-20T08:55:22.716Z,1.42
2023-01-20T08:58:25.868Z,1.76
2023-01-20T09:01:30.894Z,1.99
2023-01-20T09:04:37.286Z,1.42
2023-01-20T09:07:40.071Z,1.34
2023-01-20T09:10:42.745Z,1.30
2023-01-20T09:13:46.503Z,1.21
2023-01-20T09:16:49.666Z,1.26
2023-01-20T09:19:52.500Z,1.25
2023-01-20T09:22:55.438Z,1.24
2023-01-20T09:26:00.214Z,1.25
2023-01-20T09:29:10.052Z,1.28
2023-01-20T09:32:13.648Z,1.06
2023-01-20T09:35:16.742Z,1.19
2023-01-20T09:38:38.161Z,1.03
2023-01-20T09:42:01.956Z,1.16
2023-01-20T09:45:25.102Z,1.16
2023-01-20T09:49:09.419Z,1.21
2023-01-20T09:52:48.756Z,1.39
2023-01-20T09:56:17.367Z,1.51
2023-01-20T09:59:27.865Z,1.62
2023-01-20T10:02:35.803Z,1.83
2023-01-20T10:05:40.232Z,1.93
2023-01-20T10:09:03.929Z,1.62
2023-01-20T10:12:26.421Z,1.76
2023-01-20T10:15:31.376Z,1.64
2023-01-20T10:18:58.107Z,1.71
2023-01-20T10:22:07.087Z,1.69
2023-01-20T10:25:13.456Z,1.53
2023-01-20T10:28:21.303Z,1.99
2023-01-20T10:31:29.598Z,1.83
2023-01-20T10:34:42.810Z,1.69
2023-01-20T10:37:45.941Z,1.69
2023-01-20T10:40:56.926Z,1.84
2023-01-20T10:44:00.177Z,2.17
2023-01-20T10:47:08.786Z,1.92
2023-01-20T10:50:22.690Z,1.87
2023-01-20T10:53:39.700Z,2.15
2023-01-20T10:56:54.168Z,2.03
2023-01-20T11:00:00.503Z,2.20
2023-01-20T11:03:06.524Z,2.15
2023-01-20T11:06:21.495Z,2.00
2023-01-20T11:09:35.147Z,1.30
2023-01-20T11:12:41.275Z,1.58
2023-01-20T11:15:50.327Z,1.87
2023-01-20T11:19:07.722Z,1.87
2023-01-20T11:22:20.551Z,1.37
2023-01-20T11:25:26.079Z,1.14
2023-01-20T11:28:36.663Z,1.86
2023-01-20T11:31:46.458Z,1.62
2023-01-20T11:34:50.705Z,1.42
2023-01-20T11:37:53.409Z,1.80
2023-01-20T11:40:58.509Z,1.91
2023-01-20T11:44:01.392Z,1.95
2023-01-20T11:47:25.904Z,1.80
2023-01-20T11:50:50.683Z,1.54
2023-01-20T11:54:09.563Z,1.38
2023-01-20T11:57:16.937Z,1.60
2023-01-20T12:00:19.769Z,1.71
2023-01-20T12:03:50.754Z,1.53
2023-01-20T12:07:03.465Z,1.53
2023-01-20T12:10:35.790Z,1.48
2023-01-20T12:14:16.693Z,1.30
2023-01-20T12:17:28.475Z,1.36
2023-01-20T12:20:54.104Z,1.34
2023-01-20T12:24:05.210Z,1.10
2023-01-20T12:27:16.991Z,1.05
2023-01-20T12:30:35.004Z,1.13
2023-01-20T12:33:48.799Z,1.17
2023-01-20T12:37:45.163Z,1.08
2023-01-20T12:40:55.734Z,1.00
2023-01-20T12:44:11.553Z,0.87
2023-01-20T12:47:20.286Z,0.87
2023-01-20T12:50:50.685Z,0.91
2023-01-20T12:54:11.911Z,0.99
2023-01-20T12:57:22.341Z,0.83
2023-01-20T13:01:13.285Z,0.74
2023-01-20T13:04:18.823Z,0.78
2023-01-20T13:07:47.879Z,0.73
2023-01-20T13:11:09.205Z,0.72
2023-01-20T13:14:18.707Z,0.73
2023-01-20T13:17:33.806Z,0.83
2023-01-20T13:20:41.473Z,0.77
2023-01-20T13:23:44.410Z,0.78
2023-01-20T13:26:48.859Z,0.76
2023-01-20T13:29:51.857Z,0.71
2023-01-20T13:33:03.370Z,0.70
2023-01-20T13:36:19.375Z,0.63
2023-01-20T13:39:40.773Z,0.64
2023-01-20T13:42:43.579Z,0.60
2023-01-20T13:45:46.641Z,0.76
2023-01-20T13:49:13.411Z,0.64
2023-01-20T13:52:16.789Z,0.47
2023-01-20T13:55:41.305Z,0.54
2023-01-20T13:58:43.930Z,0.54
2023-01-20T14:01:46.891Z,0.48
2023-01-20T14:04:53.196Z,0.45
2023-01-20T14:07:56.967Z,0.50
2023-01-20T14:11:12.726Z,0.35
2023-01-20T14:14:19.779Z,0.25
2023-01-20T14:17:24.629Z,0.31
2023-01-20T14:20:29.170Z,0.30
2023-01-20T14:23:34.934Z,0.33
2023-01-20T14:26:38.407Z,0.33
2023-01-20T14:29:41.654Z,0.28
2023-01-20T14:32:44.733Z,0.19
2023-01-20T14:35:47.578Z,0.14
2023-01-20T14:38:58.442Z,0.14
2023-01-20T14:42:02.415Z,0.12
2023-01-20T14:45:22.780Z,0.07
2023-01-20T14:48:34.428Z,0.10
2023-01-20T14:51:38.258Z,0.10
2023-01-20T14:54:47.432Z,0.03
2023-01-20T14:57:51.078Z,0.08
2023-01-20T15:00:54.805Z,0.10
2023-01-20T15:04:02.454Z,0.01
2023-01-20T15:07:06.018Z,0.01
2023-01-20T15:10:15.814Z,0.05
2023-01-20T15:13:31.345Z,-0.03
2023-01-20T15:16:37.012Z,0.05
2023-01-20T15:19:46.441Z,0.05
2023-01-20T15:22:51.444Z,0.01
2023-01-20T15:25:54.657Z,0.03
2023-01-20T15:28:58.902Z,-0.01
2023-01-20T15:32:03.994Z,0.04
2023-01-20T15:35:07.789Z,0.01
2023-01-20T15:38:12.715Z,0.09
2023-01-20T15:41:16.060Z,0.12
2023-01-20T15:44:19.420Z,0.03
2023-01-20T15:47:31.224Z,0.09
2023-01-20T15:50:34.606Z,0.15
2023-01-20T15:53:37.410Z,0.04
2023-01-20T15:56:42.311Z,0.11
2023-01-20T15:59:50.085Z,0.25
2023-01-20T16:02:53.292Z,0.30
2023-01-20T16:05:56.625Z,0.20
2023-01-20T16:09:01.662Z,0.23
2023-01-20T16:12:04.760Z,0.22
2023-01-20T16:15:08.255Z,0.19
2023-01-20T16:18:14.058Z,0.18
2023-01-20T16:21:19.428Z,0.15
2023-01-20T16:24:22.638Z,0.21
2023-01-20T16:27:25.546Z,0.19
2023-01-20T16:30:28.605Z,0.06
2023-01-20T16:33:31.590Z,0.09
2023-01-20T16:36:34.462Z,0.01
2023-01-20T16:39:37.576Z,-0.12
2023-01-20T16:42:40.469Z,-0.11
2023-01-20T16:45:44.250Z,-0.12
2023-01-20T16:48:47.284Z,-0.28
2023-01-20T16:51:51.151Z,-0.40
2023-01-20T16:54:54.257Z,-0.42
2023-01-20T16:57:57.001Z,-0.47
2023-01-20T17:01:00.273Z,-0.49
2023-01-20T17:04:03.900Z,-0.41
2023-01-20T17:07:06.913Z,-0.39
2023-01-20T17:10:10.502Z,-0.31
2023-01-20T17:13:14.050Z,-0.27
2023-01-20T17:16:17.334Z,-0.37
2023-01-20T17:19:21.208Z,-0.38
2023-01-20T17:22:29.948Z,-0.46
2023-01-20T17:25:34.655Z,-0.43
2023-01-20T17:28:37.477Z,-0.47
2023-01-20T17:31:41.438Z,-0.41
2023-01-20T17:34:44.173Z,-0.52
2023-01-20T17:37:47.042Z,-0.54
2023-01-20T17:40:50.305Z,-0.60
2023-01-20T17:43:53.587Z,-0.60
2023-01-20T17:46:56.397Z,-0.69
2023-01-20T17:49:59.694Z,-0.73
2023-01-20T17:53:02.741Z,-0.72
2023-01-20T17:56:12.433Z,-0.77
2023-01-20T17:59:16.729Z,-0.84
2023-01-20T18:02:22.421Z,-0.88
2023-01-20T18:05:25.233Z,-0.91
2023-01-20T18:08:28.362Z,-0.93
2023-01-20T18:11:33.388Z,-0.91
2023-01-20T18:14:36.658Z,-0.93
2023-01-20T18:17:40.925Z,-1.03
2023-01-20T18:20:43.794Z,-0.95
2023-01-20T18:23:47.336Z,-0.95
2023-01-20T18:26:50.205Z,-0.95
2023-01-20T18:29:53.605Z,-0.93
2023-01-20T18:32:58.311Z,-1.04
2023-01-20T18:36:03.137Z,-1.08
2023-01-20T18:39:08.556Z,-1.00
2023-01-20T18:42:11.767Z,-1.05
2023-01-20T18:45:15.311Z,-1.03
2023-01-20T18:48:18.371Z,-1.00
2023-01-20T18:51:23.996Z,-1.01
2023-01-20T18:54:30.444Z,-1.06
2023-01-20T18:57:33.277Z,-1.12
2023-01-20T19:00:36.384Z,-1.10
2023-01-20T19:03:40.807Z,-1.08
2023-01-20T19:06:45.859Z,-1.07
2023-01-20T19:09:49.359Z,-1.07
2023-01-20T19:12:53.133Z,-1.09
2023-01-20T19:15:56.669Z,-1.07
2023-01-20T19:19:02.158Z,-1.11
2023-01-20T19:22:06.426Z,-1.09
2023-01-20T19:25:10.219Z,-1.10
2023-01-20T19:28:14.614Z,-1.16
2023-01-20T19:31:19.372Z,-1.09
2023-01-20T19:34:22.878Z,-1.15
2023-01-20T19:37:26.272Z,-1.11
2023-01-20T19:40:29.544Z,-1.08
2023-01-20T19:43:33.517Z,-1.13
2023-01-20T19:46:39.242Z,-1.17
2023-01-20T19:49:43.151Z,-1.11
2023-01-20T19:52:45.898Z,-1.21
2023-01-20T19:55:49.516Z,-1.24
2023-01-20T19:58:53.660Z,-1.32
2023-01-20T20:01:58.112Z,-1.31
2023-01-20T20:05:02.514Z,-1.34
2023-01-20T20:08:05.949Z,-1.34
2023-01-20T20:11:11.099Z,-1.26
2023-01-20T20:14:16.941Z,-1.28
2023-01-20T20:17:21.322Z,-1.27
2023-01-20T20:20:24.496Z,-1.29
2023-01-20T20:23:27.205Z,-1.31
2023-01-20T20:26:33.329Z,-1.30
2023-01-20T20:29:36.069Z,-1.34
2023-01-20T20:32:38.787Z,-1.33
2023-01-20T20:35:41.456Z,-1.34
2023-01-20T20:38:50.308Z,-1.36
2023-01-20T20:41:55.687Z,-1.37
2023-01-20T20:44:58.651Z,-1.33
2023-01-20T20:48:01.281Z,-1.29
2023-01-20T20:51:11.323Z,-1.33
2023-01-20T20:54:17.369Z,-1.32
2023-01-20T20:57:20.121Z,-1.32
2023-01-20T21:00:23.819Z,-1.25
2023-01-20T21:03:28.049Z,-1.32
2023-01-20T21:06:31.911Z,-1.27
2023-01-20T21:09:35.155Z,-1.30
2023-01-20T21:12:38.322Z,-1.24
2023-01-20T21:15:41.672Z,-1.27
2023-01-20T21:18:44.583Z,-1.24
2023-01-20T21:21:47.462Z,-1.26
2023-01-20T21:24:50.357Z,-1.28
2023-01-20T21:27:53.603Z,-1.24
2023-01-20T21:30:56.423Z,-1.22
2023-01-20T21:34:01.443Z,-1.25
2023-01-20T21:37:04.467Z,-1.27
2023-01-20T21:40:07.917Z,-1.24
2023-01-20T21:43:29.385Z,-1.30
2023-01-20T21:46:38.373Z,-1.33
2023-01-20T21:50:00.955Z,-1.30
2023-01-20T21:53:04.018Z,-1.31
2023-01-20T21:56:07.351Z,-1.35
2023-01-20T21:59:10.239Z,-1.32
2023-01-20T22:02:13.942Z,-1.35
2023-01-20T22:05:16.780Z,-1.33
2023-01-20T22:08:19.785Z,-1.36
2023-01-20T22:11:22.663Z,-1.38
2023-01-20T22:14:25.913Z,-1.38
2023-01-20T22:17:28.599Z,-1.32
2023-01-20T22:20:31.337Z,-1.33
2023-01-20T22:23:35.925Z,-1.37
2023-01-20T22:26:39.207Z,-1.33
2023-01-20T22:29:42.280Z,-1.31
2023-01-20T22:32:45.246Z,-1.29
2023-01-20T22:35:48.191Z,-1.28
2023-01-20T22:38:52.424Z,-1.23
2023-01-20T22:41:55.688Z,-1.23
2023-01-20T22:44:58.550Z,-1.21
2023-01-20T22:48:01.294Z,-1.21
2023-01-20T22:51:06.385Z,-1.17
2023-01-20T22:54:11.258Z,-1.22
2023-01-20T22:57:14.457Z,-1.20
2023-01-20T23:00:18.167Z,-1.21
2023-01-20T23:03:21.893Z,-1.26
2023-01-20T23:06:25.277Z,-1.23
2023-01-20T23:09:28.240Z,-1.20
2023-01-20T23:12:30.984Z,-1.22
2023-01-20T23:15:33.842Z,-1.24
2023-01-20T23:18:36.589Z,-1.20
2023-01-20T23:21:39.264Z,-1.19
2023-01-20T23:24:41.989Z,-1.18
2023-01-20T23:27:44.669Z,-1.16
2023-01-20T23:30:47.890Z,-1.23
2023-01-20T23:33:51.312Z,-1.21
2023-01-20T23:36:54.404Z,-1.21
2023-01-20T23:39:56.993Z,-1.22
2023-01-20T23:42:59.672Z,-1.21
2023-01-20T23:46:04.868Z,-1.22
2023-01-20T23:49:07.646Z,-1.21
2023-01-20T23:52:11.005Z,-1.19
2023-01-20T23:55:13.712Z,-1.19
2023-01-20T23:58:16.962Z,-1.21
